Aviation Digital Data Service (ADDS)

Output produced by METARs form (1206 UTC 24 March 2017)
found at http://www.aviationweather.gov/adds/metars/
 
FSPP 241100Z 33008KT //// //// 30/23 Q1009
FSIA 241100Z 36010KT 9999 FEW021 31/24 Q1009 NOSIG
TAF FSIA 240503Z 2406/2506 03005KT 9999 SCT020